createdAt,value
2017-01-22T00:00:56.388Z,19.73
2017-01-22T00:01:56.019Z,19.61
2017-01-22T00:02:55.649Z,19.66
2017-01-22T00:03:56.080Z,19.65
2017-01-22T00:04:56.095Z,19.66
2017-01-22T00:05:56.115Z,19.61
2017-01-22T00:06:56.540Z,19.62
2017-01-22T00:07:55.781Z,19.61
2017-01-22T00:08:55.802Z,19.51
2017-01-22T00:09:56.221Z,19.54
2017-01-22T00:10:55.855Z,19.56
2017-01-22T00:11:56.672Z,19.61
2017-01-22T00:12:56.292Z,19.51
2017-01-22T00:13:56.721Z,19.5
2017-01-22T00:14:55.954Z,19.5
2017-01-22T00:15:56.378Z,19.54
2017-01-22T00:16:56.802Z,19.55
2017-01-22T00:17:56.032Z,19.51
2017-01-22T00:18:56.862Z,19.58
2017-01-22T00:19:56.882Z,19.56
2017-01-22T00:20:56.126Z,19.43
2017-01-22T00:21:56.927Z,19.41
2017-01-22T00:22:56.948Z,19.46
2017-01-22T00:23:56.180Z,19.4
2017-01-22T00:24:57.001Z,19.43
2017-01-22T00:25:56.234Z,19.4
2017-01-22T00:26:56.658Z,19.47
2017-01-22T00:27:56.675Z,19.43
2017-01-22T00:28:56.712Z,19.44
2017-01-22T00:29:57.125Z,19.41
2017-01-22T00:30:56.757Z,19.43
2017-01-22T00:31:57.184Z,19.44
2017-01-22T00:32:56.811Z,19.4
2017-01-22T00:33:56.839Z,19.36
2017-01-22T00:34:56.484Z,19.36
2017-01-22T00:35:56.489Z,19.41
2017-01-22T00:36:56.518Z,19.29
2017-01-22T00:37:56.540Z,19.36
2017-01-22T00:38:56.571Z,19.33
2017-01-22T00:39:56.988Z,19.25
2017-01-22T00:40:57.028Z,19.29
2017-01-22T00:41:57.042Z,19.29
2017-01-22T00:42:57.467Z,19.31
2017-01-22T00:43:57.093Z,19.28
2017-01-22T00:44:57.119Z,19.22
2017-01-22T00:45:57.140Z,19.22
2017-01-22T00:46:57.161Z,19.16
2017-01-22T00:47:57.590Z,19.19
2017-01-22T00:48:57.619Z,19.13
2017-01-22T00:49:57.243Z,19.14
2017-01-22T00:50:57.272Z,19.14
2017-01-22T00:51:56.897Z,19.16
2017-01-22T00:52:57.318Z,19.16
2017-01-22T00:53:57.757Z,19.22
2017-01-22T00:54:57.780Z,19.1
2017-01-22T00:55:57.797Z,19.18
2017-01-22T00:56:57.836Z,19.11
2017-01-22T00:57:57.837Z,19.19
2017-01-22T00:58:57.866Z,19.14
2017-01-22T00:59:57.498Z,19.06
2017-01-22T01:00:57.520Z,19.04
2017-01-22T01:01:57.153Z,19.18
2017-01-22T01:02:57.573Z,19.06
2017-01-22T01:03:57.598Z,19.04
2017-01-22T01:04:57.231Z,19.13
2017-01-22T01:05:58.032Z,19.04
2017-01-22T01:06:58.067Z,18.99
2017-01-22T01:07:57.304Z,18.99
2017-01-22T01:08:58.121Z,18.9
2017-01-22T01:09:57.350Z,18.92
2017-01-22T01:10:57.800Z,18.98
2017-01-22T01:11:57.796Z,19.04
2017-01-22T01:12:57.432Z,18.99
2017-01-22T01:13:57.846Z,18.98
2017-01-22T01:14:57.862Z,18.94
2017-01-22T01:15:57.510Z,18.91
2017-01-22T01:16:57.531Z,18.92
2017-01-22T01:17:57.556Z,18.87
2017-01-22T01:18:57.977Z,18.94
2017-01-22T01:19:58.000Z,18.9
2017-01-22T01:20:58.030Z,18.87
2017-01-22T01:21:58.051Z,18.92
2017-01-22T01:22:58.081Z,18.84
2017-01-22T01:23:58.109Z,18.9
2017-01-22T01:24:57.726Z,18.82
2017-01-22T01:25:57.758Z,18.88
2017-01-22T01:26:58.174Z,18.78
2017-01-22T01:27:58.204Z,18.82
2017-01-22T01:28:58.232Z,18.82
2017-01-22T01:29:58.253Z,18.78
2017-01-22T01:30:58.674Z,18.81
2017-01-22T01:31:58.702Z,18.82
2017-01-22T01:32:57.923Z,18.85
2017-01-22T01:33:57.964Z,18.82
2017-01-22T01:34:58.380Z,18.78
2017-01-22T01:35:58.802Z,18.75
2017-01-22T01:36:58.034Z,18.76
2017-01-22T01:37:58.063Z,18.8
2017-01-22T01:38:58.503Z,18.7
2017-01-22T01:39:58.501Z,18.76
2017-01-22T01:40:58.529Z,18.72
2017-01-22T01:41:58.558Z,18.73
2017-01-22T01:42:58.183Z,18.7
2017-01-22T01:43:58.207Z,18.69
2017-01-22T01:44:58.630Z,18.7
2017-01-22T01:45:58.657Z,18.69
2017-01-22T01:46:58.684Z,18.62
2017-01-22T01:47:59.101Z,18.6
2017-01-22T01:48:58.727Z,18.62
2017-01-22T01:49:58.755Z,18.7
2017-01-22T01:50:58.783Z,18.62
2017-01-22T01:51:58.409Z,18.65
2017-01-22T01:52:59.220Z,18.63
2017-01-22T01:53:59.246Z,18.62
2017-01-22T01:54:58.874Z,18.67
2017-01-22T01:55:59.304Z,18.62
2017-01-22T01:56:59.328Z,18.63
2017-01-22T01:57:59.347Z,18.62
2017-01-22T01:58:58.986Z,18.62
2017-01-22T01:59:59.006Z,18.62
2017-01-22T02:00:58.640Z,18.57
2017-01-22T02:01:59.455Z,18.6
2017-01-22T02:02:58.685Z,18.62
2017-01-22T02:03:59.105Z,18.57
2017-01-22T02:04:59.522Z,18.62
2017-01-22T02:05:58.755Z,18.65
2017-01-22T02:06:58.788Z,18.47
2017-01-22T02:07:58.812Z,18.5
2017-01-22T02:08:58.865Z,18.51
2017-01-22T02:09:59.249Z,18.48
2017-01-22T02:10:58.881Z,18.52
2017-01-22T02:11:59.700Z,18.48
2017-01-22T02:12:59.729Z,18.48
2017-01-22T02:13:58.959Z,18.51
2017-01-22T02:14:58.985Z,18.52
2017-01-22T02:15:59.405Z,18.51
2017-01-22T02:16:59.429Z,18.5
2017-01-22T02:17:59.479Z,18.51
2017-01-22T02:18:59.083Z,18.5
2017-01-22T02:19:59.896Z,18.57
2017-01-22T02:20:59.530Z,18.48
2017-01-22T02:21:59.558Z,18.51
2017-01-22T02:22:59.186Z,18.44
2017-01-22T02:23:59.207Z,18.5
2017-01-22T02:24:59.232Z,18.5
2017-01-22T02:25:59.257Z,18.44
2017-01-22T02:26:59.678Z,18.37
2017-01-22T02:28:00.098Z,18.39
2017-01-22T02:29:00.127Z,18.45
2017-01-22T02:30:00.151Z,18.42
2017-01-22T02:30:59.376Z,18.41
2017-01-22T02:31:59.796Z,18.41
2017-01-22T02:32:59.429Z,18.41
2017-01-22T02:33:59.857Z,18.39
2017-01-22T02:34:59.480Z,18.42
2017-01-22T02:36:00.304Z,18.36
2017-01-22T02:37:00.320Z,18.33
2017-01-22T02:37:59.948Z,18.37
2017-01-22T02:38:59.974Z,18.35
2017-01-22T02:39:59.998Z,18.36
2017-01-22T02:41:00.027Z,18.36
2017-01-22T02:42:00.052Z,18.35
2017-01-22T02:42:59.676Z,18.35
2017-01-22T02:44:00.498Z,18.32
2017-01-22T02:45:00.522Z,18.36
2017-01-22T02:46:00.546Z,18.29
2017-01-22T02:46:59.775Z,18.27
2017-01-22T02:48:00.191Z,18.27
2017-01-22T02:49:00.225Z,18.29
2017-01-22T02:50:00.249Z,18.26
2017-01-22T02:50:59.876Z,18.33
2017-01-22T02:52:00.695Z,18.26
2017-01-22T02:53:00.720Z,18.26
2017-01-22T02:54:00.757Z,18.27
2017-01-22T02:55:00.377Z,18.25
2017-01-22T02:56:00.396Z,18.23
2017-01-22T02:57:00.421Z,18.25
2017-01-22T02:58:00.051Z,18.21
2017-01-22T02:59:00.467Z,18.2
2017-01-22T03:00:00.496Z,18.23
2017-01-22T03:01:00.125Z,18.18
2017-01-22T03:02:00.941Z,18.21
2017-01-22T03:03:00.570Z,18.17
2017-01-22T03:04:00.194Z,18.18
2017-01-22T03:05:00.227Z,18.23
2017-01-22T03:06:00.276Z,18.11
2017-01-22T03:07:00.669Z,18.14
2017-01-22T03:08:00.690Z,18.18
2017-01-22T03:09:01.123Z,18.17
2017-01-22T03:10:01.139Z,18.17
2017-01-22T03:11:00.372Z,18.15
2017-01-22T03:12:00.397Z,18.17
2017-01-22T03:13:00.425Z,18.21
2017-01-22T03:14:00.847Z,18.14
2017-01-22T03:15:00.472Z,18.14
2017-01-22T03:16:01.293Z,18.14
2017-01-22T03:17:00.920Z,18.14
2017-01-22T03:18:00.937Z,18.12
2017-01-22T03:19:00.965Z,18.11
2017-01-22T03:20:00.986Z,18.07
2017-01-22T03:21:00.619Z,18.15
2017-01-22T03:22:01.044Z,18.15
2017-01-22T03:23:01.457Z,18.11
2017-01-22T03:24:01.089Z,18.12
2017-01-22T03:25:01.122Z,18.1
2017-01-22T03:26:01.131Z,18.14
2017-01-22T03:27:00.763Z,18.07
2017-01-22T03:28:00.792Z,18.11
2017-01-22T03:29:01.207Z,18.02
2017-01-22T03:30:01.240Z,18.07
2017-01-22T03:31:01.263Z,18.05
2017-01-22T03:32:00.890Z,18.03
2017-01-22T03:33:01.311Z,18.07
2017-01-22T03:34:01.333Z,18.03
2017-01-22T03:35:00.965Z,18.02
2017-01-22T03:36:00.986Z,18.11
2017-01-22T03:37:01.411Z,18.08
2017-01-22T03:38:01.039Z,18.07
2017-01-22T03:39:01.065Z,17.99
2017-01-22T03:40:01.478Z,17.97
2017-01-22T03:41:01.901Z,17.95
2017-01-22T03:42:01.135Z,17.99
2017-01-22T03:43:01.555Z,17.96
2017-01-22T03:44:01.584Z,17.96
2017-01-22T03:45:01.213Z,17.95
2017-01-22T03:46:02.029Z,18.1
2017-01-22T03:47:01.655Z,17.97
2017-01-22T03:48:02.079Z,17.97
2017-01-22T03:49:02.107Z,17.96
2017-01-22T03:50:02.128Z,17.93
2017-01-22T03:51:01.761Z,17.95
2017-01-22T03:52:01.385Z,17.96
2017-01-22T03:53:01.411Z,17.99
2017-01-22T03:54:01.832Z,17.97
2017-01-22T03:55:01.844Z,17.96
2017-01-22T03:56:02.269Z,18.02
2017-01-22T03:57:01.901Z,18.07
2017-01-22T03:58:01.929Z,17.96
2017-01-22T03:59:01.563Z,18
2017-01-22T04:00:01.975Z,18
2017-01-22T04:01:02.001Z,17.97
2017-01-22T04:02:02.421Z,17.99
2017-01-22T04:03:01.658Z,17.99
2017-01-22T04:04:02.083Z,18.03
2017-01-22T04:05:02.099Z,17.92
2017-01-22T04:06:02.124Z,18.03
2017-01-22T04:07:01.757Z,17.97
2017-01-22T04:08:02.177Z,17.93
2017-01-22T04:09:02.220Z,17.86
2017-01-22T04:10:02.223Z,18
2017-01-22T04:11:02.643Z,17.95
2017-01-22T04:12:02.272Z,17.97
2017-01-22T04:13:02.693Z,17.82
2017-01-22T04:14:02.313Z,17.82
2017-01-22T04:15:02.352Z,17.86
2017-01-22T04:16:02.371Z,17.89
2017-01-22T04:17:02.000Z,17.87
2017-01-22T04:18:02.804Z,17.89
2017-01-22T04:19:02.842Z,17.79
2017-01-22T04:20:02.467Z,17.84
2017-01-22T04:21:02.119Z,17.86
2017-01-22T04:22:02.520Z,17.81
2017-01-22T04:23:02.937Z,17.92
2017-01-22T04:24:02.565Z,17.84
2017-01-22T04:25:02.195Z,17.82
2017-01-22T04:26:02.227Z,17.87
2017-01-22T04:27:03.033Z,17.9
2017-01-22T04:28:02.268Z,17.82
2017-01-22T04:29:02.288Z,17.84
2017-01-22T04:30:03.109Z,17.86
2017-01-22T04:31:02.734Z,17.81
2017-01-22T04:32:02.359Z,17.86
2017-01-22T04:33:02.788Z,17.86
2017-01-22T04:34:02.813Z,17.84
2017-01-22T04:35:02.840Z,17.79
2017-01-22T04:36:02.459Z,17.82
2017-01-22T04:37:02.490Z,17.78
2017-01-22T04:38:02.911Z,17.86
2017-01-22T04:39:02.540Z,17.81
2017-01-22T04:40:02.956Z,17.78
2017-01-22T04:41:02.985Z,17.78
2017-01-22T04:42:03.030Z,17.77
2017-01-22T04:43:02.631Z,17.79
2017-01-22T04:44:03.059Z,17.75
2017-01-22T04:45:03.480Z,17.72
2017-01-22T04:46:03.505Z,17.81
2017-01-22T04:47:03.134Z,17.74
2017-01-22T04:48:02.762Z,17.79
2017-01-22T04:49:03.183Z,17.71
2017-01-22T04:50:03.603Z,17.72
2017-01-22T04:51:02.836Z,17.7
2017-01-22T04:52:02.865Z,17.74
2017-01-22T04:53:03.278Z,17.77
2017-01-22T04:54:03.299Z,17.7
2017-01-22T04:55:02.927Z,17.74
2017-01-22T04:56:03.348Z,17.74
2017-01-22T04:57:02.981Z,17.7
2017-01-22T04:58:03.402Z,17.72
2017-01-22T04:59:03.027Z,17.74
2017-01-22T05:00:03.853Z,17.7
2017-01-22T05:01:03.476Z,17.68
2017-01-22T05:02:03.501Z,17.66
2017-01-22T05:03:03.129Z,17.66
2017-01-22T05:04:03.150Z,17.71
2017-01-22T05:05:03.570Z,17.7
2017-01-22T05:06:03.203Z,17.66
2017-01-22T05:07:03.223Z,17.7
2017-01-22T05:08:03.252Z,17.71
2017-01-22T05:09:04.073Z,17.7
2017-01-22T05:10:03.297Z,17.72
2017-01-22T05:11:03.317Z,17.7
2017-01-22T05:12:03.742Z,17.68
2017-01-22T05:13:03.366Z,17.7
2017-01-22T05:14:03.391Z,17.68
2017-01-22T05:15:03.815Z,17.64
2017-01-22T05:16:03.444Z,17.7
2017-01-22T05:17:03.469Z,17.66
2017-01-22T05:18:03.881Z,17.72
2017-01-22T05:19:04.305Z,17.63
2017-01-22T05:20:03.926Z,17.62
2017-01-22T05:21:04.356Z,17.66
2017-01-22T05:22:03.589Z,17.63
2017-01-22T05:23:03.612Z,17.68
2017-01-22T05:24:03.638Z,17.64
2017-01-22T05:25:03.704Z,17.7
2017-01-22T05:26:04.078Z,17.62
2017-01-22T05:27:04.511Z,17.62
2017-01-22T05:28:04.531Z,17.64
2017-01-22T05:29:04.158Z,17.68
2017-01-22T05:30:04.576Z,17.64
2017-01-22T05:31:04.209Z,17.66
2017-01-22T05:32:04.225Z,17.7
2017-01-22T05:33:04.251Z,17.77
2017-01-22T05:34:03.879Z,17.81
2017-01-22T05:35:04.304Z,17.75
2017-01-22T05:36:04.340Z,17.81
2017-01-22T05:37:04.349Z,17.84
2017-01-22T05:38:03.978Z,17.93
2017-01-22T05:39:04.003Z,17.84
2017-01-22T05:40:04.031Z,17.84
2017-01-22T05:41:04.049Z,17.87
2017-01-22T05:42:04.856Z,17.95
2017-01-22T05:43:04.889Z,17.96
2017-01-22T05:44:04.922Z,17.97
2017-01-22T05:45:04.539Z,17.95
2017-01-22T05:46:04.567Z,17.95
2017-01-22T05:47:04.589Z,17.99
2017-01-22T05:48:05.015Z,18.05
2017-01-22T05:49:04.246Z,17.99
2017-01-22T05:50:05.058Z,17.97
2017-01-22T05:51:04.294Z,18.05
2017-01-22T05:52:04.719Z,18.1
2017-01-22T05:53:04.344Z,18.08
2017-01-22T05:54:04.365Z,18.11
2017-01-22T05:55:04.791Z,18.17
2017-01-22T05:56:04.810Z,18.14
2017-01-22T05:57:04.836Z,18.12
2017-01-22T05:58:04.872Z,18.21
2017-01-22T05:59:05.296Z,18.2
2017-01-22T06:00:05.302Z,18.21
2017-01-22T06:01:05.329Z,18.27
2017-01-22T06:02:04.571Z,18.27
2017-01-22T06:03:04.579Z,18.33
2017-01-22T06:04:05.007Z,18.35
2017-01-22T06:05:04.636Z,18.27
2017-01-22T06:06:04.657Z,18.29
2017-01-22T06:07:05.086Z,18.35
2017-01-22T06:08:05.503Z,18.39
2017-01-22T06:09:04.735Z,18.44
2017-01-22T06:10:05.151Z,18.41
2017-01-22T06:11:04.820Z,18.37
2017-01-22T06:12:05.205Z,18.44
2017-01-22T06:13:04.834Z,18.47
2017-01-22T06:14:05.258Z,18.41
2017-01-22T06:15:05.280Z,18.51
2017-01-22T06:16:05.304Z,18.51
2017-01-22T06:17:05.333Z,18.48
2017-01-22T06:18:05.362Z,18.5
2017-01-22T06:19:05.382Z,18.5
2017-01-22T06:20:05.792Z,18.45
2017-01-22T06:21:05.428Z,18.54
2017-01-22T06:22:05.057Z,18.44
2017-01-22T06:23:05.077Z,18.52
2017-01-22T06:24:05.501Z,18.51
2017-01-22T06:25:05.526Z,18.6
2017-01-22T06:26:05.548Z,18.57
2017-01-22T06:27:05.577Z,18.57
2017-01-22T06:28:05.601Z,18.6
2017-01-22T06:29:05.626Z,18.57
2017-01-22T06:30:05.251Z,18.62
2017-01-22T06:31:05.280Z,18.62
2017-01-22T06:32:05.720Z,18.55
2017-01-22T06:33:05.725Z,18.57
2017-01-22T06:34:05.750Z,18.57
2017-01-22T06:35:05.775Z,18.62
2017-01-22T06:36:05.799Z,18.6
2017-01-22T06:37:05.428Z,18.65
2017-01-22T06:38:05.836Z,18.65
2017-01-22T06:39:05.473Z,18.57
2017-01-22T06:40:05.508Z,18.65
2017-01-22T06:41:05.527Z,18.62
2017-01-22T06:42:05.943Z,18.62
2017-01-22T06:43:05.576Z,18.6
2017-01-22T06:44:06.389Z,18.65
2017-01-22T06:45:06.047Z,18.62
2017-01-22T06:46:05.650Z,18.6
2017-01-22T06:47:06.068Z,18.66
2017-01-22T06:48:06.088Z,18.65
2017-01-22T06:49:06.521Z,18.62
2017-01-22T06:50:06.137Z,18.65
2017-01-22T06:51:06.563Z,18.69
2017-01-22T06:52:06.194Z,18.62
2017-01-22T06:53:06.219Z,18.65
2017-01-22T06:54:06.248Z,18.65
2017-01-22T06:55:06.272Z,18.58
2017-01-22T06:56:06.289Z,18.66
2017-01-22T06:57:06.321Z,18.58
2017-01-22T06:58:06.340Z,18.67
2017-01-22T06:59:06.350Z,18.66
2017-01-22T07:00:06.791Z,18.63
2017-01-22T07:01:06.808Z,18.7
2017-01-22T07:02:06.040Z,18.7
2017-01-22T07:03:06.066Z,18.73
2017-01-22T07:04:06.488Z,18.69
2017-01-22T07:05:06.127Z,18.72
2017-01-22T07:06:06.535Z,18.72
2017-01-22T07:07:06.960Z,18.7
2017-01-22T07:08:06.584Z,18.72
2017-01-22T07:09:06.213Z,18.78
2017-01-22T07:10:07.025Z,18.82
2017-01-22T07:11:06.658Z,18.7
2017-01-22T07:12:06.287Z,18.7
2017-01-22T07:13:06.312Z,18.78
2017-01-22T07:14:07.132Z,18.78
2017-01-22T07:15:06.753Z,18.76
2017-01-22T07:16:06.788Z,18.81
2017-01-22T07:17:06.415Z,18.75
2017-01-22T07:18:06.835Z,18.88
2017-01-22T07:19:07.261Z,18.75
2017-01-22T07:20:06.877Z,18.76
2017-01-22T07:21:06.902Z,18.78
2017-01-22T07:22:06.942Z,18.84
2017-01-22T07:23:06.563Z,18.84
2017-01-22T07:24:06.589Z,18.78
2017-01-22T07:25:07.016Z,18.8
2017-01-22T07:26:06.643Z,18.78
2017-01-22T07:27:07.460Z,18.84
2017-01-22T07:28:07.479Z,18.87
2017-01-22T07:29:07.505Z,18.87
2017-01-22T07:30:07.132Z,18.85
2017-01-22T07:31:06.758Z,18.78
2017-01-22T07:32:07.185Z,18.85
2017-01-22T07:33:07.206Z,18.76
2017-01-22T07:34:07.627Z,18.76
2017-01-22T07:35:06.859Z,18.88
2017-01-22T07:36:07.681Z,18.82
2017-01-22T07:37:07.702Z,18.78
2017-01-22T07:38:07.725Z,18.78
2017-01-22T07:39:07.741Z,18.87
2017-01-22T07:40:06.983Z,18.82
2017-01-22T07:41:07.792Z,18.81
2017-01-22T07:42:07.429Z,18.81
2017-01-22T07:43:07.457Z,18.78
2017-01-22T07:44:07.477Z,18.82
2017-01-22T07:45:07.503Z,18.78
2017-01-22T07:46:07.949Z,18.82
2017-01-22T07:47:07.147Z,18.81
2017-01-22T07:48:07.587Z,18.73
2017-01-22T07:49:07.605Z,18.73
2017-01-22T07:50:07.652Z,18.75
2017-01-22T07:51:08.046Z,18.8
2017-01-22T07:52:07.279Z,18.7
2017-01-22T07:53:08.100Z,18.8
2017-01-22T07:54:07.728Z,18.73
2017-01-22T07:55:08.149Z,18.72
2017-01-22T07:56:07.377Z,18.72
2017-01-22T07:57:07.801Z,18.69
2017-01-22T07:58:07.431Z,18.73
2017-01-22T07:59:08.247Z,18.69
2017-01-22T08:00:07.480Z,18.72
2017-01-22T08:01:07.896Z,18.66
2017-01-22T08:02:08.319Z,18.66
2017-01-22T08:03:07.946Z,18.69
2017-01-22T08:04:07.575Z,18.63
2017-01-22T08:05:08.002Z,18.65
2017-01-22T08:06:07.628Z,18.67
2017-01-22T08:07:08.054Z,18.63
2017-01-22T08:08:07.676Z,18.65
2017-01-22T08:09:07.702Z,18.6
2017-01-22T08:10:08.122Z,18.6
2017-01-22T08:11:08.151Z,18.66
2017-01-22T08:12:08.171Z,18.63
2017-01-22T08:13:08.192Z,18.58
2017-01-22T08:14:08.220Z,18.6
2017-01-22T08:15:08.641Z,18.62
2017-01-22T08:16:07.874Z,18.66
2017-01-22T08:17:08.294Z,18.58
2017-01-22T08:18:08.324Z,18.62
2017-01-22T08:19:08.743Z,18.52
2017-01-22T08:20:07.971Z,18.58
2017-01-22T08:21:08.388Z,18.58
2017-01-22T08:22:08.420Z,18.44
2017-01-22T08:23:08.441Z,18.58
2017-01-22T08:24:08.070Z,18.45
2017-01-22T08:25:08.487Z,18.57
2017-01-22T08:26:08.123Z,18.62
2017-01-22T08:27:08.934Z,18.55
2017-01-22T08:28:08.592Z,18.54
2017-01-22T08:29:08.590Z,18.58
2017-01-22T08:30:08.218Z,18.65
2017-01-22T08:31:08.243Z,18.88
2017-01-22T08:32:08.255Z,18.87
2017-01-22T08:33:08.292Z,19.11
2017-01-22T08:34:09.108Z,19.28
2017-01-22T08:35:08.737Z,19.29
2017-01-22T08:36:09.157Z,19.33
2017-01-22T08:37:08.414Z,19.33
2017-01-22T08:38:08.811Z,19.32
2017-01-22T08:39:09.232Z,19.31
2017-01-22T08:40:09.258Z,19.14
2017-01-22T08:41:09.281Z,19.19
2017-01-22T08:42:08.914Z,19.22
2017-01-22T08:43:09.347Z,19.14
2017-01-22T08:44:08.959Z,19.19
2017-01-22T08:45:08.990Z,19.16
2017-01-22T08:46:08.613Z,19.16
2017-01-22T08:47:09.037Z,19.07
2017-01-22T08:48:09.059Z,19.07
2017-01-22T08:49:09.510Z,19.13
2017-01-22T08:50:08.732Z,19.14
2017-01-22T08:51:09.144Z,19.13
2017-01-22T08:52:09.553Z,19.06
2017-01-22T08:53:09.178Z,19.08
2017-01-22T08:54:09.607Z,19.06
2017-01-22T08:55:09.655Z,19.16
2017-01-22T08:56:09.653Z,19.14
2017-01-22T08:57:08.890Z,19.14
2017-01-22T08:58:08.914Z,19.11
2017-01-22T08:59:09.731Z,19.13
2017-01-22T09:00:09.751Z,19.06
2017-01-22T09:01:09.792Z,19.04
2017-01-22T09:02:09.806Z,19.14
2017-01-22T09:03:09.829Z,19.11
2017-01-22T09:04:09.458Z,19.1
2017-01-22T09:05:09.487Z,19.13
2017-01-22T09:06:09.512Z,19.19
2017-01-22T09:07:09.142Z,19.07
2017-01-22T09:08:09.170Z,19.21
2017-01-22T09:09:09.983Z,19.11
2017-01-22T09:10:09.611Z,19.23
2017-01-22T09:11:09.656Z,19.28
2017-01-22T09:12:09.665Z,19.21
2017-01-22T09:13:10.082Z,19.21
2017-01-22T09:14:10.107Z,19.18
2017-01-22T09:15:10.132Z,19.19
2017-01-22T09:16:09.769Z,19.14
2017-01-22T09:17:10.180Z,19.19
2017-01-22T09:18:09.817Z,19.19
2017-01-22T09:19:09.853Z,19.13
2017-01-22T09:20:09.870Z,19.16
2017-01-22T09:21:10.284Z,19.29
2017-01-22T09:22:10.308Z,19.29
2017-01-22T09:23:10.329Z,19.28
2017-01-22T09:24:09.957Z,19.16
2017-01-22T09:25:09.995Z,19.29
2017-01-22T09:26:10.014Z,19.26
2017-01-22T09:27:10.427Z,19.22
2017-01-22T09:28:10.463Z,19.31
2017-01-22T09:29:09.694Z,19.25
2017-01-22T09:30:10.114Z,19.26
2017-01-22T09:31:10.140Z,19.28
2017-01-22T09:32:10.204Z,19.37
2017-01-22T09:33:10.189Z,19.43
2017-01-22T09:34:10.209Z,19.4
2017-01-22T09:35:10.234Z,19.46
2017-01-22T09:36:10.259Z,19.46
2017-01-22T09:37:10.289Z,19.46
2017-01-22T09:38:10.309Z,19.41
2017-01-22T09:39:10.342Z,19.54
2017-01-22T09:40:10.763Z,19.55
2017-01-22T09:41:10.828Z,19.46
2017-01-22T09:42:10.416Z,19.59
2017-01-22T09:43:10.049Z,19.55
2017-01-22T09:44:10.463Z,19.65
2017-01-22T09:45:10.892Z,19.61
2017-01-22T09:46:10.520Z,19.65
2017-01-22T09:47:10.929Z,19.68
2017-01-22T09:48:10.965Z,19.71
2017-01-22T09:49:10.987Z,19.74
2017-01-22T09:50:10.615Z,19.81
2017-01-22T09:51:10.643Z,19.8
2017-01-22T09:52:10.664Z,19.86
2017-01-22T09:53:10.694Z,19.88
2017-01-22T09:54:10.727Z,19.84
2017-01-22T09:55:11.144Z,19.95
2017-01-22T09:56:11.169Z,19.99
2017-01-22T09:57:10.798Z,19.95
2017-01-22T09:58:11.226Z,19.96
2017-01-22T09:59:10.865Z,19.95
2017-01-22T10:00:10.869Z,19.96
2017-01-22T10:01:10.900Z,20.02
2017-01-22T10:02:11.317Z,19.96
2017-01-22T10:03:10.949Z,19.92
2017-01-22T10:04:11.355Z,19.95
2017-01-22T10:05:11.395Z,19.94
2017-01-22T10:06:11.019Z,19.96
2017-01-22T10:07:10.652Z,19.99
2017-01-22T10:08:11.069Z,19.95
2017-01-22T10:09:10.702Z,19.92
2017-01-22T10:10:11.522Z,19.95
2017-01-22T10:11:10.756Z,19.84
2017-01-22T10:12:10.779Z,19.94
2017-01-22T10:13:11.196Z,19.92
2017-01-22T10:14:11.230Z,19.88
2017-01-22T10:15:11.281Z,19.87
2017-01-22T10:16:11.667Z,19.87
2017-01-22T10:17:11.304Z,19.76
2017-01-22T10:18:11.328Z,19.71
2017-01-22T10:19:11.344Z,19.76
2017-01-22T10:20:11.773Z,19.76
2017-01-22T10:21:11.406Z,19.71
2017-01-22T10:22:11.822Z,19.71
2017-01-22T10:23:11.460Z,19.74
2017-01-22T10:24:11.888Z,19.63
2017-01-22T10:25:11.929Z,19.65
2017-01-22T10:26:11.530Z,19.73
2017-01-22T10:27:11.554Z,19.74
2017-01-22T10:28:11.184Z,19.68
2017-01-22T10:29:11.208Z,19.68
2017-01-22T10:30:11.628Z,19.74
2017-01-22T10:31:11.658Z,19.66
2017-01-22T10:32:11.673Z,19.66
2017-01-22T10:33:11.707Z,19.71
2017-01-22T10:34:12.132Z,19.63
2017-01-22T10:35:11.756Z,19.65
2017-01-22T10:36:11.784Z,19.68
2017-01-22T10:37:11.807Z,19.63
2017-01-22T10:38:11.839Z,19.65
2017-01-22T10:39:12.256Z,19.74
2017-01-22T10:40:12.284Z,19.66
2017-01-22T10:41:11.940Z,19.65
2017-01-22T10:42:11.543Z,19.73
2017-01-22T10:43:11.965Z,19.68
2017-01-22T10:44:12.388Z,19.73
2017-01-22T10:45:12.021Z,19.69
2017-01-22T10:46:12.050Z,19.66
2017-01-22T10:47:11.667Z,19.8
2017-01-22T10:48:12.095Z,19.65
2017-01-22T10:49:12.119Z,19.69
2017-01-22T10:50:12.142Z,19.76
2017-01-22T10:51:12.169Z,19.73
2017-01-22T10:52:12.591Z,19.74
2017-01-22T10:53:12.623Z,19.76
2017-01-22T10:54:12.647Z,19.69
2017-01-22T10:55:12.280Z,19.77
2017-01-22T10:56:12.693Z,19.76
2017-01-22T10:57:12.322Z,19.73
2017-01-22T10:58:11.952Z,19.77
2017-01-22T10:59:12.372Z,19.78
2017-01-22T11:00:12.400Z,19.74
2017-01-22T11:01:12.861Z,19.76
2017-01-22T11:02:12.849Z,19.68
2017-01-22T11:03:12.084Z,19.73
2017-01-22T11:04:12.907Z,19.68
2017-01-22T11:05:12.523Z,19.76
2017-01-22T11:06:12.950Z,19.66
2017-01-22T11:07:12.978Z,19.71
2017-01-22T11:08:12.614Z,19.71
2017-01-22T11:09:13.030Z,19.68
2017-01-22T11:10:12.652Z,19.66
2017-01-22T11:11:12.288Z,19.71
2017-01-22T11:12:12.309Z,19.71
2017-01-22T11:13:13.130Z,19.71
2017-01-22T11:14:13.164Z,19.71
2017-01-22T11:15:13.183Z,19.71
2017-01-22T11:16:12.804Z,19.76
2017-01-22T11:17:12.833Z,19.65
2017-01-22T11:18:12.870Z,19.66
2017-01-22T11:19:12.891Z,19.61
2017-01-22T11:20:12.515Z,19.65
2017-01-22T11:21:12.548Z,19.63
2017-01-22T11:22:12.973Z,19.68
2017-01-22T11:23:12.995Z,19.74
2017-01-22T11:24:13.022Z,19.74
2017-01-22T11:25:13.043Z,19.8
2017-01-22T11:26:13.063Z,19.78
2017-01-22T11:27:13.492Z,19.8
2017-01-22T11:28:13.122Z,19.81
2017-01-22T11:29:12.754Z,19.8
2017-01-22T11:30:12.781Z,19.86
2017-01-22T11:31:12.813Z,19.88
2017-01-22T11:32:13.220Z,19.87
2017-01-22T11:33:13.650Z,19.87
2017-01-22T11:34:13.680Z,19.94
2017-01-22T11:35:13.303Z,19.96
2017-01-22T11:36:13.723Z,20.01
2017-01-22T11:37:12.984Z,20.01
2017-01-22T11:38:13.372Z,20.02
2017-01-22T11:39:13.015Z,20.14
2017-01-22T11:40:13.432Z,20.2
2017-01-22T11:41:13.855Z,20.14
2017-01-22T11:42:13.480Z,20.23
2017-01-22T11:43:13.505Z,20.21
2017-01-22T11:44:13.146Z,20.17
2017-01-22T11:45:13.958Z,20.24
2017-01-22T11:46:13.600Z,20.39
2017-01-22T11:47:14.008Z,20.33
2017-01-22T11:48:13.269Z,20.39
2017-01-22T11:49:13.297Z,20.51
2017-01-22T11:50:13.299Z,20.47
2017-01-22T11:51:13.719Z,20.5
2017-01-22T11:52:13.743Z,20.48
2017-01-22T11:53:13.764Z,20.57
2017-01-22T11:54:13.812Z,20.61
2017-01-22T11:55:13.425Z,20.55
2017-01-22T11:56:13.853Z,20.58
2017-01-22T11:57:13.876Z,20.67
2017-01-22T11:58:14.297Z,20.61
2017-01-22T11:59:13.950Z,20.67
2017-01-22T12:00:13.961Z,20.59
2017-01-22T12:01:14.374Z,20.69
2017-01-22T12:02:14.003Z,20.73
2017-01-22T12:03:14.428Z,20.73
2017-01-22T12:04:14.453Z,20.61
2017-01-22T12:05:14.079Z,20.64
2017-01-22T12:06:14.510Z,20.76
2017-01-22T12:07:14.543Z,20.72
2017-01-22T12:08:13.766Z,20.79
2017-01-22T12:09:14.221Z,20.7
2017-01-22T12:10:14.227Z,20.7
2017-01-22T12:11:14.242Z,20.73
2017-01-22T12:12:14.662Z,20.72
2017-01-22T12:13:14.300Z,20.74
2017-01-22T12:14:14.717Z,20.74
2017-01-22T12:15:14.767Z,20.64
2017-01-22T12:16:14.830Z,20.7
2017-01-22T12:17:14.810Z,20.72
2017-01-22T12:18:14.420Z,20.76
2017-01-22T12:19:14.060Z,20.76
2017-01-22T12:20:14.869Z,20.69
2017-01-22T12:21:14.902Z,20.76
2017-01-22T12:22:14.531Z,20.7
2017-01-22T12:23:14.556Z,20.72
2017-01-22T12:24:14.585Z,20.64
2017-01-22T12:25:14.610Z,20.72
2017-01-22T12:26:14.634Z,20.62
2017-01-22T12:27:15.059Z,20.62
2017-01-22T12:28:14.688Z,20.58
2017-01-22T12:29:15.113Z,20.61
2017-01-22T12:30:14.745Z,20.7
2017-01-22T12:31:15.161Z,20.48
2017-01-22T12:32:14.791Z,20.64
2017-01-22T12:33:15.215Z,20.58
2017-01-22T12:34:15.235Z,20.54
2017-01-22T12:35:14.869Z,20.55
2017-01-22T12:36:14.503Z,20.47
2017-01-22T12:37:15.318Z,20.51
2017-01-22T12:38:14.950Z,20.47
2017-01-22T12:39:15.374Z,20.52
2017-01-22T12:40:15.006Z,20.43
2017-01-22T12:41:15.451Z,20.41
2017-01-22T12:42:15.470Z,20.38
2017-01-22T12:43:15.479Z,20.38
2017-01-22T12:44:15.111Z,20.39
2017-01-22T12:45:15.528Z,20.29
2017-01-22T12:46:15.161Z,20.32
2017-01-22T12:47:15.191Z,20.2
2017-01-22T12:48:14.922Z,20.29
2017-01-22T12:49:15.645Z,20.26
2017-01-22T12:50:14.869Z,20.18
2017-01-22T12:51:15.689Z,20.17
2017-01-22T12:52:15.347Z,20.16
2017-01-22T12:53:15.342Z,20.18
2017-01-22T12:54:15.380Z,20.13
2017-01-22T12:55:15.392Z,20.16
2017-01-22T12:56:15.421Z,20.03